sensor_id;sensor_type;location;lat;lon;timestamp;pressure;altitude;pressure_sealevel;temperature;humidity
10732;BME280;5417;42.686;23.244;2023-04-26T00:00:28;93369.25;;;12.22;69.20
10732;BME280;5417;42.686;23.244;2023-04-26T00:03:16;93342.00;;;12.09;68.04
10732;BME280;5417;42.686;23.244;2023-04-26T00:05:43;93355.88;;;12.09;68.74
10732;BME280;5417;42.686;23.244;2023-04-26T00:08:10;93346.56;;;11.98;69.30
10732;BME280;5417;42.686;23.244;2023-04-26T00:10:37;93353.41;;;11.99;69.71
10732;BME280;5417;42.686;23.244;2023-04-26T00:16:55;93341.13;;;11.92;68.47
10732;BME280;5417;42.686;23.244;2023-04-26T00:19:24;93341.41;;;11.81;68.13
10732;BME280;5417;42.686;23.244;2023-04-26T00:21:52;93328.38;;;11.81;68.69
10732;BME280;5417;42.686;23.244;2023-04-26T00:28:05;93334.09;;;11.84;68.75
10732;BME280;5417;42.686;23.244;2023-04-26T00:30:34;93329.03;;;11.83;68.65
10732;BME280;5417;42.686;23.244;2023-04-26T00:33:02;93325.63;;;11.82;69.11
10732;BME280;5417;42.686;23.244;2023-04-26T00:35:30;93329.34;;;11.80;69.57
10732;BME280;5417;42.686;23.244;2023-04-26T00:37:57;93317.09;;;11.72;69.28
10732;BME280;5417;42.686;23.244;2023-04-26T00:40:54;93323.94;;;11.73;70.13
10732;BME280;5417;42.686;23.244;2023-04-26T00:43:20;93320.81;;;11.69;69.63
10732;BME280;5417;42.686;23.244;2023-04-26T00:46:25;93325.38;;;11.67;70.24
10732;BME280;5417;42.686;23.244;2023-04-26T00:55:40;93327.34;;;11.65;70.47
10732;BME280;5417;42.686;23.244;2023-04-26T00:58:07;93309.50;;;11.45;71.00
10732;BME280;5417;42.686;23.244;2023-04-26T01:00:57;93317.97;;;11.47;71.43
10732;BME280;5417;42.686;23.244;2023-04-26T01:25:07;93315.78;;;11.34;72.84
10732;BME280;5417;42.686;23.244;2023-04-26T01:27:37;93322.59;;;11.27;72.80
10732;BME280;5417;42.686;23.244;2023-04-26T01:30:05;93322.66;;;11.09;72.78
10732;BME280;5417;42.686;23.244;2023-04-26T01:32:32;93325.47;;;11.16;72.84
10732;BME280;5417;42.686;23.244;2023-04-26T01:35:54;93335.34;;;11.04;73.33
10732;BME280;5417;42.686;23.244;2023-04-26T01:38:14;93332.47;;;11.15;72.90
10732;BME280;5417;42.686;23.244;2023-04-26T01:43:34;93332.69;;;10.96;74.14
10732;BME280;5417;42.686;23.244;2023-04-26T01:46:01;93336.25;;;10.95;74.04
10732;BME280;5417;42.686;23.244;2023-04-26T01:48:28;93337.06;;;10.95;74.66
10732;BME280;5417;42.686;23.244;2023-04-26T01:51:18;93328.28;;;10.96;75.06
10732;BME280;5417;42.686;23.244;2023-04-26T01:53:45;93331.56;;;10.98;74.06
10732;BME280;5417;42.686;23.244;2023-04-26T01:56:14;93320.47;;;10.96;74.10
10732;BME280;5417;42.686;23.244;2023-04-26T01:58:41;93321.97;;;10.99;73.54
10732;BME280;5417;42.686;23.244;2023-04-26T02:01:08;93314.81;;;11.01;73.72
10732;BME280;5417;42.686;23.244;2023-04-26T02:03:52;93298.06;;;11.03;74.25
10732;BME280;5417;42.686;23.244;2023-04-26T02:06:18;93299.19;;;11.01;74.27
10732;BME280;5417;42.686;23.244;2023-04-26T02:08:45;93306.50;;;10.97;73.61
10732;BME280;5417;42.686;23.244;2023-04-26T02:11:14;93310.50;;;10.92;73.16
10732;BME280;5417;42.686;23.244;2023-04-26T02:17:06;93304.03;;;10.96;73.22
10732;BME280;5417;42.686;23.244;2023-04-26T02:19:35;93289.97;;;10.89;73.35
10732;BME280;5417;42.686;23.244;2023-04-26T02:22:28;93297.22;;;10.95;73.30
10732;BME280;5417;42.686;23.244;2023-04-26T02:43:31;93309.56;;;10.93;73.95
10732;BME280;5417;42.686;23.244;2023-04-26T02:56:00;93289.53;;;11.27;70.44
10732;BME280;5417;42.686;23.244;2023-04-26T03:01:35;93296.41;;;10.77;72.93
10732;BME280;5417;42.686;23.244;2023-04-26T03:04:02;93293.09;;;10.66;73.26
10732;BME280;5417;42.686;23.244;2023-04-26T03:06:29;93287.63;;;10.78;74.21
10732;BME280;5417;42.686;23.244;2023-04-26T03:09:35;93286.50;;;10.80;74.00
10732;BME280;5417;42.686;23.244;2023-04-26T03:12:04;93293.31;;;10.73;74.47
10732;BME280;5417;42.686;23.244;2023-04-26T03:49:19;93308.59;;;10.94;75.56
10732;BME280;5417;42.686;23.244;2023-04-26T03:51:46;93310.22;;;10.95;75.50
10732;BME280;5417;42.686;23.244;2023-04-26T03:55:07;93314.50;;;11.04;76.00
10732;BME280;5417;42.686;23.244;2023-04-26T04:04:25;93320.00;;;11.27;75.23
10732;BME280;5417;42.686;23.244;2023-04-26T04:07:06;93324.38;;;11.26;74.92
10732;BME280;5417;42.686;23.244;2023-04-26T04:09:33;93323.88;;;11.23;74.90
10732;BME280;5417;42.686;23.244;2023-04-26T04:12:00;93330.59;;;11.33;75.24
10732;BME280;5417;42.686;23.244;2023-04-26T04:15:21;93336.59;;;11.60;73.95
10732;BME280;5417;42.686;23.244;2023-04-26T04:17:41;93332.69;;;11.56;73.38
10732;BME280;5417;42.686;23.244;2023-04-26T04:20:27;93333.31;;;11.50;73.56
10732;BME280;5417;42.686;23.244;2023-04-26T04:24:33;93333.09;;;11.43;74.01
10732;BME280;5417;42.686;23.244;2023-04-26T04:26:23;93330.88;;;11.22;74.93
10732;BME280;5417;42.686;23.244;2023-04-26T04:29:41;93338.06;;;11.28;75.56
10732;BME280;5417;42.686;23.244;2023-04-26T04:32:27;93345.09;;;11.36;75.17
10732;BME280;5417;42.686;23.244;2023-04-26T04:38:29;93344.00;;;12.31;72.31
10732;BME280;5417;42.686;23.244;2023-04-26T04:41:20;93334.88;;;12.84;70.52
10732;BME280;5417;42.686;23.244;2023-04-26T04:46:56;93339.63;;;13.05;68.49
10732;BME280;5417;42.686;23.244;2023-04-26T04:49:22;93341.06;;;12.99;68.58
10732;BME280;5417;42.686;23.244;2023-04-26T04:52:44;93340.44;;;12.64;69.26
10732;BME280;5417;42.686;23.244;2023-04-26T04:55:23;93351.81;;;12.31;70.50
10732;BME280;5417;42.686;23.244;2023-04-26T05:01:29;93351.72;;;11.90;73.54
10732;BME280;5417;42.686;23.244;2023-04-26T05:03:57;93345.53;;;11.91;73.50
10732;BME280;5417;42.686;23.244;2023-04-26T05:16:24;93343.66;;;12.26;73.47
10732;BME280;5417;42.686;23.244;2023-04-26T05:18:52;93337.47;;;12.35;72.84
10732;BME280;5417;42.686;23.244;2023-04-26T05:21:19;93343.19;;;12.39;71.68
10732;BME280;5417;42.686;23.244;2023-04-26T05:23:46;93344.66;;;12.41;71.72
10732;BME280;5417;42.686;23.244;2023-04-26T05:26:26;93336.34;;;12.46;70.82
10732;BME280;5417;42.686;23.244;2023-04-26T05:28:53;93340.59;;;12.71;70.75
10732;BME280;5417;42.686;23.244;2023-04-26T05:34:29;93346.63;;;12.80;68.16
10732;BME280;5417;42.686;23.244;2023-04-26T05:36:56;93352.03;;;12.62;68.35
10732;BME280;5417;42.686;23.244;2023-04-26T05:39:23;93347.47;;;12.56;68.13
10732;BME280;5417;42.686;23.244;2023-04-26T05:41:50;93353.81;;;12.70;68.24
10732;BME280;5417;42.686;23.244;2023-04-26T05:44:17;93360.84;;;12.77;68.59
10732;BME280;5417;42.686;23.244;2023-04-26T05:46:44;93367.03;;;12.84;68.32
10732;BME280;5417;42.686;23.244;2023-04-26T05:55:32;93359.69;;;13.12;67.35
10732;BME280;5417;42.686;23.244;2023-04-26T05:58:00;93359.84;;;13.27;65.47
10732;BME280;5417;42.686;23.244;2023-04-26T06:00:27;93354.75;;;13.42;65.53
10732;BME280;5417;42.686;23.244;2023-04-26T06:02:53;93369.00;;;13.31;63.23
10732;BME280;5417;42.686;23.244;2023-04-26T06:08:46;93373.91;;;13.02;62.78
10732;BME280;5417;42.686;23.244;2023-04-26T06:11:14;93373.09;;;13.09;64.51
10732;BME280;5417;42.686;23.244;2023-04-26T06:13:41;93364.75;;;13.22;64.90
10732;BME280;5417;42.686;23.244;2023-04-26T06:17:02;93372.44;;;12.75;65.41
10732;BME280;5417;42.686;23.244;2023-04-26T06:19:22;93364.72;;;12.41;65.73
10732;BME280;5417;42.686;23.244;2023-04-26T06:21:48;93373.00;;;12.28;65.97
10732;BME280;5417;42.686;23.244;2023-04-26T06:56:46;93394.38;;;12.23;68.37
10732;BME280;5417;42.686;23.244;2023-04-26T06:59:13;93395.00;;;12.17;67.65
10732;BME280;5417;42.686;23.244;2023-04-26T07:01:40;93394.03;;;12.18;68.00
10732;BME280;5417;42.686;23.244;2023-04-26T07:04:06;93391.25;;;12.12;68.06
10732;BME280;5417;42.686;23.244;2023-04-26T07:06:35;93404.50;;;12.43;68.30
10732;BME280;5417;42.686;23.244;2023-04-26T07:09:04;93396.56;;;12.69;67.54
10732;BME280;5417;42.686;23.244;2023-04-26T07:11:32;93397.56;;;12.92;64.23
10732;BME280;5417;42.686;23.244;2023-04-26T07:14:00;93400.03;;;13.02;64.37
10732;BME280;5417;42.686;23.244;2023-04-26T07:16:27;93387.78;;;13.02;62.81
10732;BME280;5417;42.686;23.244;2023-04-26T07:18:54;93393.00;;;12.86;61.58
10732;BME280;5417;42.686;23.244;2023-04-26T07:21:22;93393.19;;;13.01;59.92
10732;BME280;5417;42.686;23.244;2023-04-26T07:23:52;93390.72;;;13.23;59.83
10732;BME280;5417;42.686;23.244;2023-04-26T07:26:19;93401.97;;;13.08;59.12
10732;BME280;5417;42.686;23.244;2023-04-26T07:28:46;93402.47;;;13.03;58.42
10732;BME280;5417;42.686;23.244;2023-04-26T07:31:14;93403.22;;;12.47;59.19
10732;BME280;5417;42.686;23.244;2023-04-26T07:33:42;93395.53;;;12.45;61.05
10732;BME280;5417;42.686;23.244;2023-04-26T07:36:08;93410.56;;;12.43;61.19
10732;BME280;5417;42.686;23.244;2023-04-26T07:38:35;93405.22;;;12.77;61.70
10732;BME280;5417;42.686;23.244;2023-04-26T07:41:27;93416.53;;;13.18;60.18
10732;BME280;5417;42.686;23.244;2023-04-26T07:43:54;93414.72;;;13.27;57.81
10732;BME280;5417;42.686;23.244;2023-04-26T07:46:22;93409.00;;;13.15;57.68
10732;BME280;5417;42.686;23.244;2023-04-26T07:48:49;93422.84;;;12.83;58.19
10732;BME280;5417;42.686;23.244;2023-04-26T07:51:16;93421.06;;;12.84;59.14
10732;BME280;5417;42.686;23.244;2023-04-26T07:54:04;93423.38;;;13.03;57.14
10732;BME280;5417;42.686;23.244;2023-04-26T07:56:30;93420.56;;;12.88;58.15
10732;BME280;5417;42.686;23.244;2023-04-26T07:58:57;93422.19;;;12.98;57.96
10732;BME280;5417;42.686;23.244;2023-04-26T08:04:55;93409.31;;;13.37;56.00
10732;BME280;5417;42.686;23.244;2023-04-26T08:07:41;93411.59;;;13.40;56.11
10732;BME280;5417;42.686;23.244;2023-04-26T08:10:09;93415.84;;;13.16;57.85
10732;BME280;5417;42.686;23.244;2023-04-26T08:12:58;93406.38;;;12.75;56.68
10732;BME280;5417;42.686;23.244;2023-04-26T08:15:39;93419.25;;;12.60;57.06
10732;BME280;5417;42.686;23.244;2023-04-26T08:18:06;93410.75;;;12.58;57.22
10732;BME280;5417;42.686;23.244;2023-04-26T08:27:33;93423.69;;;13.08;59.19
10732;BME280;5417;42.686;23.244;2023-04-26T08:30:02;93426.16;;;13.10;56.92
10732;BME280;5417;42.686;23.244;2023-04-26T08:32:35;93411.63;;;13.07;56.81
10732;BME280;5417;42.686;23.244;2023-04-26T08:35:16;93417.69;;;13.24;57.19
10732;BME280;5417;42.686;23.244;2023-04-26T08:37:43;93417.81;;;13.39;57.13
10732;BME280;5417;42.686;23.244;2023-04-26T08:40:10;93406.31;;;13.72;57.78
10732;BME280;5417;42.686;23.244;2023-04-26T08:42:40;93407.41;;;13.86;55.23
10732;BME280;5417;42.686;23.244;2023-04-26T08:45:09;93419.41;;;13.72;54.69
10732;BME280;5417;42.686;23.244;2023-04-26T08:57:42;93412.72;;;13.62;56.38
10732;BME280;5417;42.686;23.244;2023-04-26T09:00:10;93409.75;;;13.73;55.48
10732;BME280;5417;42.686;23.244;2023-04-26T09:02:39;93414.03;;;13.66;55.42
10732;BME280;5417;42.686;23.244;2023-04-26T09:14:46;93426.38;;;13.88;54.26
10732;BME280;5417;42.686;23.244;2023-04-26T09:17:26;93408.97;;;13.64;55.77
10732;BME280;5417;42.686;23.244;2023-04-26T09:19:55;93419.72;;;13.69;54.90
10732;BME280;5417;42.686;23.244;2023-04-26T09:22:33;93418.56;;;13.72;54.05
10732;BME280;5417;42.686;23.244;2023-04-26T09:25:01;93427.94;;;13.34;55.49
10732;BME280;5417;42.686;23.244;2023-04-26T09:27:33;93431.84;;;13.13;56.51
10732;BME280;5417;42.686;23.244;2023-04-26T09:30:11;93443.63;;;13.34;56.36
10732;BME280;5417;42.686;23.244;2023-04-26T09:32:52;93430.88;;;13.55;55.33
10732;BME280;5417;42.686;23.244;2023-04-26T09:35:29;93420.25;;;13.48;54.05
10732;BME280;5417;42.686;23.244;2023-04-26T09:44:52;93411.56;;;13.64;53.39
10732;BME280;5417;42.686;23.244;2023-04-26T09:47:21;93414.38;;;13.54;53.89
10732;BME280;5417;42.686;23.244;2023-04-26T09:49:49;93410.94;;;13.46;54.11
10732;BME280;5417;42.686;23.244;2023-04-26T09:52:18;93416.50;;;13.35;53.54
10732;BME280;5417;42.686;23.244;2023-04-26T09:54:46;93417.34;;;13.27;53.44
10732;BME280;5417;42.686;23.244;2023-04-26T09:57:14;93413.88;;;13.43;54.17
10732;BME280;5417;42.686;23.244;2023-04-26T09:59:43;93410.59;;;13.49;54.59
10732;BME280;5417;42.686;23.244;2023-04-26T10:02:14;93410.78;;;13.55;53.94
10732;BME280;5417;42.686;23.244;2023-04-26T10:04:46;93413.22;;;13.65;53.60
10732;BME280;5417;42.686;23.244;2023-04-26T10:07:15;93401.28;;;13.63;51.14
10732;BME280;5417;42.686;23.244;2023-04-26T10:10:49;93407.59;;;13.84;52.60
10732;BME280;5417;42.686;23.244;2023-04-26T10:12:54;93403.31;;;13.92;51.70
10732;BME280;5417;42.686;23.244;2023-04-26T10:15:21;93400.41;;;13.78;51.47
10732;BME280;5417;42.686;23.244;2023-04-26T10:17:49;93398.00;;;13.69;50.71
10732;BME280;5417;42.686;23.244;2023-04-26T10:20:19;93405.06;;;13.60;51.76
10732;BME280;5417;42.686;23.244;2023-04-26T10:22:51;93404.19;;;13.76;52.27
10732;BME280;5417;42.686;23.244;2023-04-26T10:25:18;93398.94;;;13.76;51.01
10732;BME280;5417;42.686;23.244;2023-04-26T10:27:46;93390.50;;;13.49;49.76
10732;BME280;5417;42.686;23.244;2023-04-26T10:33:19;93410.72;;;13.72;49.14
10732;BME280;5417;42.686;23.244;2023-04-26T10:36:22;93398.75;;;13.85;50.71
10732;BME280;5417;42.686;23.244;2023-04-26T10:39:16;93403.31;;;13.92;50.14
10732;BME280;5417;42.686;23.244;2023-04-26T10:41:44;93390.56;;;13.88;49.75
10732;BME280;5417;42.686;23.244;2023-04-26T10:45:22;93392.50;;;13.95;48.89
10732;BME280;5417;42.686;23.244;2023-04-26T10:47:29;93389.97;;;13.70;49.13
10732;BME280;5417;42.686;23.244;2023-04-26T10:53:58;93394.94;;;13.96;49.48
10732;BME280;5417;42.686;23.244;2023-04-26T10:56:50;93391.19;;;13.99;49.09
10732;BME280;5417;42.686;23.244;2023-04-26T10:59:21;93386.16;;;13.89;48.23
10732;BME280;5417;42.686;23.244;2023-04-26T11:01:48;93392.81;;;14.08;48.51
10732;BME280;5417;42.686;23.244;2023-04-26T11:04:15;93383.28;;;14.15;49.08
10732;BME280;5417;42.686;23.244;2023-04-26T11:06:50;93389.50;;;14.14;48.29
10732;BME280;5417;42.686;23.244;2023-04-26T11:09:34;93383.75;;;13.79;46.68
10732;BME280;5417;42.686;23.244;2023-04-26T11:12:03;93387.38;;;13.70;48.29
10732;BME280;5417;42.686;23.244;2023-04-26T11:14:31;93382.81;;;13.64;48.60
10732;BME280;5417;42.686;23.244;2023-04-26T11:17:02;93373.38;;;13.55;48.05
10732;BME280;5417;42.686;23.244;2023-04-26T11:19:29;93384.22;;;13.83;49.53
10732;BME280;5417;42.686;23.244;2023-04-26T11:21:56;93383.78;;;13.71;47.39
10732;BME280;5417;42.686;23.244;2023-04-26T11:24:24;93381.72;;;13.89;47.47
10732;BME280;5417;42.686;23.244;2023-04-26T11:26:52;93387.75;;;13.98;47.38
10732;BME280;5417;42.686;23.244;2023-04-26T11:29:19;93381.31;;;14.17;47.15
10732;BME280;5417;42.686;23.244;2023-04-26T11:31:56;93388.69;;;14.13;46.31
10732;BME280;5417;42.686;23.244;2023-04-26T11:34:30;93382.84;;;13.95;47.48
10732;BME280;5417;42.686;23.244;2023-04-26T11:36:58;93392.16;;;14.06;47.91
10732;BME280;5417;42.686;23.244;2023-04-26T11:39:24;93385.47;;;13.95;48.68
10732;BME280;5417;42.686;23.244;2023-04-26T11:41:55;93385.44;;;14.03;46.65
10732;BME280;5417;42.686;23.244;2023-04-26T11:45:24;93382.69;;;14.05;46.31
10732;BME280;5417;42.686;23.244;2023-04-26T11:47:44;93400.56;;;14.24;46.52
10732;BME280;5417;42.686;23.244;2023-04-26T11:50:12;93385.97;;;14.30;46.74
10732;BME280;5417;42.686;23.244;2023-04-26T11:52:40;93376.31;;;14.30;47.19
10732;BME280;5417;42.686;23.244;2023-04-26T11:55:08;93386.56;;;14.09;46.37
10732;BME280;5417;42.686;23.244;2023-04-26T11:57:37;93390.28;;;14.23;47.66
10732;BME280;5417;42.686;23.244;2023-04-26T12:00:11;93389.72;;;14.35;47.85
10732;BME280;5417;42.686;23.244;2023-04-26T12:02:42;93382.13;;;14.17;47.59
10732;BME280;5417;42.686;23.244;2023-04-26T12:05:10;93387.34;;;14.17;47.15
10732;BME280;5417;42.686;23.244;2023-04-26T12:07:38;93372.59;;;14.25;47.22
10732;BME280;5417;42.686;23.244;2023-04-26T12:10:14;93359.34;;;13.87;47.05
10732;BME280;5417;42.686;23.244;2023-04-26T12:12:48;93389.91;;;13.86;46.62
10732;BME280;5417;42.686;23.244;2023-04-26T12:15:16;93383.53;;;13.89;46.72
10732;BME280;5417;42.686;23.244;2023-04-26T12:17:53;93380.69;;;14.07;46.48
10732;BME280;5417;42.686;23.244;2023-04-26T12:20:31;93380.31;;;14.18;44.80
10732;BME280;5417;42.686;23.244;2023-04-26T12:23:00;93383.16;;;14.08;46.57
10732;BME280;5417;42.686;23.244;2023-04-26T12:25:29;93369.72;;;14.03;45.80
10732;BME280;5417;42.686;23.244;2023-04-26T12:27:57;93384.16;;;13.99;46.28
10732;BME280;5417;42.686;23.244;2023-04-26T12:30:26;93378.25;;;13.97;47.50
10732;BME280;5417;42.686;23.244;2023-04-26T12:32:53;93381.19;;;14.10;48.15
10732;BME280;5417;42.686;23.244;2023-04-26T12:35:20;93367.78;;;14.05;48.08
10732;BME280;5417;42.686;23.244;2023-04-26T12:37:48;93376.41;;;14.14;48.21
10732;BME280;5417;42.686;23.244;2023-04-26T12:40:16;93372.53;;;14.33;48.13
10732;BME280;5417;42.686;23.244;2023-04-26T12:42:45;93367.97;;;13.96;47.76
10732;BME280;5417;42.686;23.244;2023-04-26T12:45:13;93374.44;;;14.16;47.92
10732;BME280;5417;42.686;23.244;2023-04-26T12:47:40;93366.28;;;14.11;46.64
10732;BME280;5417;42.686;23.244;2023-04-26T12:50:08;93369.91;;;14.02;47.02
10732;BME280;5417;42.686;23.244;2023-04-26T12:52:37;93372.25;;;13.88;47.11
10732;BME280;5417;42.686;23.244;2023-04-26T12:55:05;93362.09;;;13.94;48.25
10732;BME280;5417;42.686;23.244;2023-04-26T12:57:31;93353.56;;;14.00;47.61
10732;BME280;5417;42.686;23.244;2023-04-26T12:59:58;93370.19;;;14.15;48.51
10732;BME280;5417;42.686;23.244;2023-04-26T13:09:04;93381.91;;;14.27;48.89
10732;BME280;5417;42.686;23.244;2023-04-26T13:11:32;93365.56;;;13.86;48.31
10732;BME280;5417;42.686;23.244;2023-04-26T13:13:59;93374.91;;;13.80;48.30
10732;BME280;5417;42.686;23.244;2023-04-26T13:17:21;93372.84;;;13.68;49.75
10732;BME280;5417;42.686;23.244;2023-04-26T13:19:40;93391.63;;;13.71;47.24
10732;BME280;5417;42.686;23.244;2023-04-26T13:22:09;93378.56;;;13.63;47.10
10732;BME280;5417;42.686;23.244;2023-04-26T13:24:37;93406.38;;;13.56;48.04
10732;BME280;5417;42.686;23.244;2023-04-26T13:27:05;93398.66;;;13.63;46.77
10732;BME280;5417;42.686;23.244;2023-04-26T13:29:31;93402.59;;;13.58;46.71
10732;BME280;5417;42.686;23.244;2023-04-26T13:31:59;93407.50;;;13.62;48.48
10732;BME280;5417;42.686;23.244;2023-04-26T13:34:26;93405.53;;;13.64;48.88
10732;BME280;5417;42.686;23.244;2023-04-26T13:36:54;93414.03;;;13.57;48.40
10732;BME280;5417;42.686;23.244;2023-04-26T13:39:22;93416.63;;;13.66;48.67
10732;BME280;5417;42.686;23.244;2023-04-26T13:41:50;93412.53;;;13.71;48.26
10732;BME280;5417;42.686;23.244;2023-04-26T13:44:18;93422.47;;;13.84;49.45
10732;BME280;5417;42.686;23.244;2023-04-26T13:46:45;93426.13;;;13.67;48.04
10732;BME280;5417;42.686;23.244;2023-04-26T13:49:12;93421.72;;;13.51;48.35
10732;BME280;5417;42.686;23.244;2023-04-26T13:52:05;93432.34;;;13.57;49.52
10732;BME280;5417;42.686;23.244;2023-04-26T13:58:01;93448.22;;;13.23;49.54
10732;BME280;5417;42.686;23.244;2023-04-26T14:00:28;93433.34;;;13.32;49.09
10732;BME280;5417;42.686;23.244;2023-04-26T14:02:55;93442.00;;;13.41;49.56
10732;BME280;5417;42.686;23.244;2023-04-26T14:05:22;93442.34;;;13.21;49.12
10732;BME280;5417;42.686;23.244;2023-04-26T14:07:49;93456.38;;;13.37;49.83
10732;BME280;5417;42.686;23.244;2023-04-26T14:10:16;93462.09;;;13.40;49.30
10732;BME280;5417;42.686;23.244;2023-04-26T14:12:43;93447.06;;;13.42;49.63
10732;BME280;5417;42.686;23.244;2023-04-26T14:15:11;93458.19;;;13.28;49.24
10732;BME280;5417;42.686;23.244;2023-04-26T14:17:38;93474.59;;;12.96;50.53
10732;BME280;5417;42.686;23.244;2023-04-26T14:20:07;93459.22;;;12.69;50.49
10732;BME280;5417;42.686;23.244;2023-04-26T14:22:34;93476.06;;;12.74;52.46
10732;BME280;5417;42.686;23.244;2023-04-26T14:25:01;93468.72;;;12.78;51.89
10732;BME280;5417;42.686;23.244;2023-04-26T14:28:17;93474.09;;;12.76;52.69
10732;BME280;5417;42.686;23.244;2023-04-26T14:33:46;93477.66;;;12.59;51.70
10732;BME280;5417;42.686;23.244;2023-04-26T14:36:13;93480.44;;;12.57;52.53
10732;BME280;5417;42.686;23.244;2023-04-26T14:39:04;93486.47;;;12.58;52.34
10732;BME280;5417;42.686;23.244;2023-04-26T14:41:31;93488.91;;;12.59;52.62
10732;BME280;5417;42.686;23.244;2023-04-26T14:43:58;93493.66;;;12.72;52.44
10732;BME280;5417;42.686;23.244;2023-04-26T14:46:25;93509.78;;;12.59;52.87
10732;BME280;5417;42.686;23.244;2023-04-26T14:52:10;93511.25;;;12.54;54.00
10732;BME280;5417;42.686;23.244;2023-04-26T14:54:37;93501.16;;;12.67;53.74
10732;BME280;5417;42.686;23.244;2023-04-26T14:57:04;93505.28;;;12.36;53.71
10732;BME280;5417;42.686;23.244;2023-04-26T14:59:32;93502.81;;;12.26;54.47
10732;BME280;5417;42.686;23.244;2023-04-26T15:01:59;93523.75;;;12.42;54.35
10732;BME280;5417;42.686;23.244;2023-04-26T15:05:16;93528.19;;;12.50;54.03
10732;BME280;5417;42.686;23.244;2023-04-26T15:07:38;93529.44;;;12.38;54.56
10732;BME280;5417;42.686;23.244;2023-04-26T15:10:06;93532.47;;;12.25;55.22
10732;BME280;5417;42.686;23.244;2023-04-26T15:12:33;93531.44;;;12.10;55.06
10732;BME280;5417;42.686;23.244;2023-04-26T15:15:00;93536.91;;;11.98;55.67
10732;BME280;5417;42.686;23.244;2023-04-26T15:21:26;93555.00;;;12.26;55.20
10732;BME280;5417;42.686;23.244;2023-04-26T15:23:55;93560.69;;;12.21;55.08
10732;BME280;5417;42.686;23.244;2023-04-26T15:26:22;93555.34;;;12.31;55.63
10732;BME280;5417;42.686;23.244;2023-04-26T15:55:03;93596.59;;;11.84;58.21
10732;BME280;5417;42.686;23.244;2023-04-26T16:04:37;93615.47;;;11.78;58.91
10732;BME280;5417;42.686;23.244;2023-04-26T16:24:22;93625.06;;;11.42;60.37
10732;BME280;5417;42.686;23.244;2023-04-26T16:26:50;93627.59;;;11.51;60.18
10732;BME280;5417;42.686;23.244;2023-04-26T16:43:33;93637.34;;;11.67;59.16
10732;BME280;5417;42.686;23.244;2023-04-26T16:52:14;93651.72;;;11.53;60.02
10732;BME280;5417;42.686;23.244;2023-04-26T16:54:41;93636.81;;;11.28;59.95
10732;BME280;5417;42.686;23.244;2023-04-26T17:13:11;93686.09;;;11.39;60.70
10732;BME280;5417;42.686;23.244;2023-04-26T17:15:39;93690.16;;;11.51;59.53
10732;BME280;5417;42.686;23.244;2023-04-26T17:24:14;93702.81;;;11.64;60.13
10732;BME280;5417;42.686;23.244;2023-04-26T17:27:07;93704.78;;;11.80;58.57
10732;BME280;5417;42.686;23.244;2023-04-26T17:29:35;93712.66;;;11.70;59.39
10732;BME280;5417;42.686;23.244;2023-04-26T17:35:30;93718.06;;;11.59;59.43
10732;BME280;5417;42.686;23.244;2023-04-26T17:37:59;93723.97;;;11.61;60.08
10732;BME280;5417;42.686;23.244;2023-04-26T17:41:20;93721.97;;;11.73;59.72
10732;BME280;5417;42.686;23.244;2023-04-26T17:43:38;93732.00;;;11.67;59.64
10732;BME280;5417;42.686;23.244;2023-04-26T17:46:27;93734.28;;;11.80;59.79
10732;BME280;5417;42.686;23.244;2023-04-26T17:48:53;93730.22;;;11.68;59.61
10732;BME280;5417;42.686;23.244;2023-04-26T17:52:15;93740.78;;;11.66;60.22
10732;BME280;5417;42.686;23.244;2023-04-26T17:58:20;93741.69;;;11.75;59.66
10732;BME280;5417;42.686;23.244;2023-04-26T18:00:57;93735.66;;;11.57;59.30
10732;BME280;5417;42.686;23.244;2023-04-26T18:03:43;93756.88;;;11.62;59.83
10732;BME280;5417;42.686;23.244;2023-04-26T18:07:09;93758.91;;;11.68;59.64
10732;BME280;5417;42.686;23.244;2023-04-26T18:10:16;93764.41;;;11.65;59.25
10732;BME280;5417;42.686;23.244;2023-04-26T18:13:01;93768.28;;;11.61;60.23
10732;BME280;5417;42.686;23.244;2023-04-26T18:22:07;93770.88;;;11.61;58.93
10732;BME280;5417;42.686;23.244;2023-04-26T18:24:34;93778.56;;;11.62;59.28
10732;BME280;5417;42.686;23.244;2023-04-26T18:27:52;93792.78;;;11.68;58.49
10732;BME280;5417;42.686;23.244;2023-04-26T18:30:36;93802.44;;;11.58;59.13
10732;BME280;5417;42.686;23.244;2023-04-26T18:33:27;93796.63;;;11.46;59.13
10732;BME280;5417;42.686;23.244;2023-04-26T18:36:17;93804.84;;;11.42;59.63
10732;BME280;5417;42.686;23.244;2023-04-26T18:38:46;93806.91;;;11.38;59.48
10732;BME280;5417;42.686;23.244;2023-04-26T18:45:14;93811.69;;;11.43;58.93
10732;BME280;5417;42.686;23.244;2023-04-26T18:47:41;93808.13;;;11.44;58.80
10732;BME280;5417;42.686;23.244;2023-04-26T18:53:38;93817.66;;;11.25;58.99
10732;BME280;5417;42.686;23.244;2023-04-26T18:56:06;93824.31;;;11.10;59.30
10732;BME280;5417;42.686;23.244;2023-04-26T18:58:33;93822.94;;;11.06;59.73
10732;BME280;5417;42.686;23.244;2023-04-26T19:01:01;93818.56;;;11.06;59.46
10732;BME280;5417;42.686;23.244;2023-04-26T19:04:38;93831.28;;;11.10;59.66
10732;BME280;5417;42.686;23.244;2023-04-26T19:06:43;93835.13;;;11.15;59.01
10732;BME280;5417;42.686;23.244;2023-04-26T19:09:33;93841.13;;;11.25;58.55
10732;BME280;5417;42.686;23.244;2023-04-26T19:12:04;93837.78;;;11.33;58.67
10732;BME280;5417;42.686;23.244;2023-04-26T19:14:56;93846.00;;;11.38;58.92
10732;BME280;5417;42.686;23.244;2023-04-26T19:17:23;93841.97;;;11.53;57.80
10732;BME280;5417;42.686;23.244;2023-04-26T19:24:30;93849.16;;;11.69;57.08
10732;BME280;5417;42.686;23.244;2023-04-26T19:26:32;93838.66;;;11.61;56.20
10732;BME280;5417;42.686;23.244;2023-04-26T19:29:00;93843.19;;;11.59;56.83
10732;BME280;5417;42.686;23.244;2023-04-26T19:31:27;93847.34;;;11.52;56.85
10732;BME280;5417;42.686;23.244;2023-04-26T20:02:10;93864.50;;;10.88;58.97
10732;BME280;5417;42.686;23.244;2023-04-26T20:09:13;93869.84;;;10.87;58.51